createdAt,value
2022-10-29T00:00:56.840Z,85.06
2022-10-29T00:03:25.274Z,84.43
2022-10-29T00:06:01.246Z,83.66
2022-10-29T00:08:30.804Z,83.09
2022-10-29T00:11:07.048Z,82.85
2022-10-29T00:13:34.623Z,83.21
2022-10-29T00:16:06.929Z,83.25
2022-10-29T00:18:33.889Z,83.42
2022-10-29T00:21:02.432Z,83.85
2022-10-29T00:23:29.248Z,83.77
2022-10-29T00:25:57.274Z,84.60
2022-10-29T00:28:24.216Z,84.79
2022-10-29T00:30:51.203Z,84.61
2022-10-29T00:35:59.487Z,85.34
2022-10-29T00:38:27.479Z,84.24
2022-10-29T00:40:55.320Z,85.14
2022-10-29T00:43:25.284Z,84.73
2022-10-29T00:45:57.681Z,84.51
2022-10-29T00:48:31.653Z,84.65
2022-10-29T00:51:03.615Z,83.56
2022-10-29T00:53:38.758Z,82.53
2022-10-29T00:56:06.708Z,83.44
2022-10-29T00:58:35.194Z,83.71
2022-10-29T01:01:02.602Z,85.68
2022-10-29T01:03:30.941Z,87.35
2022-10-29T01:05:58.378Z,87.69
2022-10-29T01:08:25.290Z,87.69
2022-10-29T01:11:11.727Z,87.35
2022-10-29T01:14:00.426Z,86.77
2022-10-29T01:16:41.978Z,85.83
2022-10-29T01:19:23.311Z,85.43
2022-10-29T01:22:02.640Z,85.64
2022-10-29T01:24:57.015Z,85.91
2022-10-29T01:27:48.058Z,86.37
2022-10-29T01:30:32.612Z,86.82
2022-10-29T01:33:18.136Z,87.16
2022-10-29T01:35:54.590Z,86.89
2022-10-29T01:38:38.353Z,86.81
2022-10-29T01:41:18.051Z,86.99
2022-10-29T01:43:53.459Z,86.53
2022-10-29T01:46:28.773Z,85.77
2022-10-29T01:49:07.777Z,85.18
2022-10-29T01:51:39.251Z,84.67
2022-10-29T01:54:10.766Z,85.08
2022-10-29T01:56:38.117Z,84.86
2022-10-29T01:59:22.883Z,85.82
2022-10-29T02:02:15.781Z,87.04
2022-10-29T02:05:17.391Z,87.86
2022-10-29T02:07:52.243Z,87.83
2022-10-29T02:10:32.717Z,87.92
2022-10-29T02:13:00.188Z,87.80
2022-10-29T02:15:35.284Z,87.64
2022-10-29T02:18:06.406Z,87.76
2022-10-29T02:20:35.721Z,87.04
2022-10-29T02:23:03.197Z,86.52
2022-10-29T02:25:30.161Z,86.01
2022-10-29T02:27:59.508Z,86.63
2022-10-29T02:30:26.490Z,87.13
2022-10-29T02:32:53.966Z,87.69
2022-10-29T02:35:21.139Z,87.89
2022-10-29T02:37:49.746Z,87.90
2022-10-29T02:40:16.797Z,87.84
2022-10-29T02:42:43.981Z,88.14
2022-10-29T02:45:10.985Z,87.51
2022-10-29T02:47:38.673Z,86.47
2022-10-29T02:50:07.450Z,85.96
2022-10-29T02:52:34.271Z,85.54
2022-10-29T02:55:02.805Z,85.63
2022-10-29T02:57:29.554Z,85.68
2022-10-29T02:59:56.361Z,85.40
2022-10-29T03:02:23.483Z,86.93
2022-10-29T03:04:50.300Z,87.96
2022-10-29T03:07:20.036Z,88.55
2022-10-29T03:09:52.273Z,88.80
2022-10-29T03:12:20.706Z,88.96
2022-10-29T03:14:48.055Z,88.30
2022-10-29T03:17:15.058Z,88.36
2022-10-29T03:19:42.929Z,88.69
2022-10-29T03:22:09.665Z,89.05
2022-10-29T03:24:36.766Z,88.96
2022-10-29T03:27:03.834Z,88.53
2022-10-29T03:29:32.393Z,88.30
2022-10-29T03:31:59.296Z,88.13
2022-10-29T03:34:26.057Z,88.24
2022-10-29T03:36:52.893Z,87.43
2022-10-29T03:39:20.092Z,87.76
2022-10-29T03:41:46.882Z,87.49
2022-10-29T03:44:13.573Z,87.38
2022-10-29T03:46:41.889Z,87.69
2022-10-29T03:49:09.205Z,87.55
2022-10-29T03:51:35.928Z,88.33
2022-10-29T03:54:03.066Z,88.50
2022-10-29T03:56:29.849Z,88.42
2022-10-29T03:58:56.623Z,87.93
2022-10-29T04:01:23.930Z,87.33
2022-10-29T04:03:52.080Z,87.79
2022-10-29T04:06:19.073Z,87.72
2022-10-29T04:08:45.853Z,88.01
2022-10-29T04:11:14.099Z,87.60
2022-10-29T04:13:41.272Z,87.05
2022-10-29T04:16:08.185Z,86.72
2022-10-29T04:18:35.224Z,86.07
2022-10-29T04:29:25.076Z,84.97
2022-10-29T04:31:51.793Z,85.00
2022-10-29T04:34:18.729Z,85.30
2022-10-29T04:36:46.792Z,85.38
2022-10-29T04:39:14.372Z,85.12
2022-10-29T04:41:42.923Z,85.78
2022-10-29T04:44:09.662Z,85.71
2022-10-29T04:46:36.396Z,85.61
2022-10-29T04:49:03.620Z,86.31
2022-10-29T04:51:30.843Z,86.58
2022-10-29T04:53:58.948Z,86.69
2022-10-29T04:56:25.655Z,87.36
2022-10-29T04:58:53.251Z,87.17
2022-10-29T05:01:20.527Z,87.73
2022-10-29T05:03:47.509Z,87.64
2022-10-29T05:06:14.215Z,87.33
2022-10-29T05:08:41.049Z,86.81
2022-10-29T05:11:09.402Z,86.47
2022-10-29T05:13:36.150Z,86.13
2022-10-29T05:16:03.158Z,86.25
2022-10-29T05:18:29.968Z,86.04
2022-10-29T05:20:57.517Z,86.09
2022-10-29T05:23:24.474Z,85.97
2022-10-29T05:25:51.382Z,85.63
2022-10-29T05:28:22.426Z,85.65
2022-10-29T05:30:52.022Z,85.14
2022-10-29T05:33:21.731Z,84.72
2022-10-29T05:35:48.812Z,83.96
2022-10-29T05:38:16.840Z,83.89
2022-10-29T05:40:44.118Z,83.50
2022-10-29T05:43:11.094Z,83.51
2022-10-29T05:45:40.037Z,83.23
2022-10-29T05:48:07.939Z,83.46
2022-10-29T05:50:34.974Z,83.34
2022-10-29T05:53:05.221Z,83.71
2022-10-29T05:55:34.793Z,83.22
2022-10-29T05:58:05.853Z,83.07
2022-10-29T06:00:36.504Z,83.09
2022-10-29T06:03:11.946Z,82.85
2022-10-29T06:05:38.946Z,83.10
2022-10-29T06:08:05.974Z,82.89
2022-10-29T06:10:33.313Z,82.89
2022-10-29T06:13:00.059Z,82.76
2022-10-29T06:15:27.068Z,82.93
2022-10-29T06:17:54.267Z,82.41
2022-10-29T06:20:22.610Z,83.25
2022-10-29T06:22:57.296Z,82.81
2022-10-29T06:25:25.076Z,83.39
2022-10-29T06:28:03.585Z,84.04
2022-10-29T06:30:33.083Z,83.56
2022-10-29T06:33:00.882Z,82.66
2022-10-29T06:35:31.277Z,82.40
2022-10-29T06:37:58.475Z,81.55
2022-10-29T06:40:26.094Z,82.90
2022-10-29T06:43:17.869Z,83.24
2022-10-29T06:45:44.918Z,80.55
2022-10-29T06:48:11.629Z,81.63
2022-10-29T06:54:05.391Z,77.93
2022-10-29T06:56:32.404Z,79.12
2022-10-29T06:58:59.656Z,77.18
2022-10-29T07:01:35.805Z,76.14
2022-10-29T07:04:03.763Z,74.57
2022-10-29T07:06:34.002Z,72.92
2022-10-29T07:09:00.799Z,71.72
2022-10-29T07:11:27.862Z,71.24
2022-10-29T07:13:54.732Z,70.52
2022-10-29T07:16:21.768Z,71.51
2022-10-29T07:18:48.900Z,71.96
2022-10-29T07:21:15.732Z,73.88
2022-10-29T07:23:44.201Z,73.45
2022-10-29T07:26:11.055Z,72.73
2022-10-29T07:29:04.209Z,70.66
2022-10-29T07:31:33.398Z,69.65
2022-10-29T07:34:00.233Z,68.24
2022-10-29T07:36:27.178Z,66.81
2022-10-29T07:38:55.661Z,65.03
2022-10-29T07:41:22.648Z,64.40
2022-10-29T07:43:50.065Z,62.63
2022-10-29T07:46:19.010Z,60.99
2022-10-29T07:48:46.080Z,59.15
2022-10-29T07:51:13.078Z,61.03
2022-10-29T07:53:40.990Z,61.19
2022-10-29T07:56:09.746Z,62.29
2022-10-29T07:58:36.533Z,62.53
2022-10-29T08:01:07.342Z,62.09
2022-10-29T08:03:34.129Z,64.12
2022-10-29T08:06:00.870Z,62.80
2022-10-29T08:08:27.983Z,60.99
2022-10-29T08:12:14.678Z,58.98
2022-10-29T08:24:55.832Z,55.01
2022-10-29T08:31:09.510Z,57.02
2022-10-29T08:33:36.741Z,56.56
2022-10-29T08:36:04.154Z,56.77
2022-10-29T08:38:31.021Z,56.55
2022-10-29T08:41:30.396Z,57.56
2022-10-29T08:44:43.633Z,57.75
2022-10-29T08:47:18.458Z,59.81
2022-10-29T08:50:03.126Z,58.87
2022-10-29T08:52:36.730Z,59.11
2022-10-29T08:55:12.855Z,59.65
2022-10-29T08:57:45.738Z,60.12
2022-10-29T09:00:18.692Z,61.43
2022-10-29T09:02:46.155Z,61.33
2022-10-29T09:05:15.584Z,60.35
2022-10-29T09:08:12.223Z,57.82
2022-10-29T09:10:47.157Z,53.31
2022-10-29T09:13:33.186Z,51.78
2022-10-29T09:16:18.919Z,49.36
2022-10-29T09:19:22.254Z,47.18
2022-10-29T09:22:05.288Z,46.06
2022-10-29T09:24:43.343Z,44.14
2022-10-29T09:27:20.353Z,42.13
2022-10-29T09:30:04.282Z,41.07
2022-10-29T09:32:39.902Z,39.79
2022-10-29T09:35:14.325Z,40.67
2022-10-29T09:37:49.390Z,40.51
2022-10-29T09:40:32.489Z,40.16
2022-10-29T09:43:06.080Z,42.00
2022-10-29T09:45:48.902Z,41.72
2022-10-29T09:48:26.974Z,42.78
2022-10-29T09:51:08.213Z,43.64
2022-10-29T09:53:35.900Z,43.09
2022-10-29T09:56:08.533Z,41.11
2022-10-29T09:58:44.102Z,38.60
2022-10-29T10:01:13.629Z,37.66
2022-10-29T10:03:45.177Z,37.07
2022-10-29T10:06:15.020Z,35.55
2022-10-29T10:09:01.469Z,34.69
2022-10-29T10:11:38.855Z,34.57
2022-10-29T10:14:17.620Z,34.71
2022-10-29T10:16:46.723Z,33.92
2022-10-29T10:19:23.030Z,32.46
2022-10-29T10:21:59.056Z,31.55
2022-10-29T10:24:33.930Z,30.55
2022-10-29T10:27:26.230Z,30.21
2022-10-29T10:30:14.766Z,29.93
2022-10-29T10:32:47.342Z,31.75
2022-10-29T10:35:29.276Z,32.89
2022-10-29T10:37:58.713Z,31.97
2022-10-29T10:40:26.892Z,31.23
2022-10-29T10:42:55.929Z,29.86
2022-10-29T10:45:28.984Z,29.48
2022-10-29T10:47:59.436Z,30.45
2022-10-29T10:50:29.898Z,29.59
2022-10-29T10:53:00.159Z,29.21
2022-10-29T10:55:32.702Z,28.56
2022-10-29T10:58:08.885Z,27.93
2022-10-29T11:00:43.089Z,29.33
2022-10-29T11:03:21.409Z,28.83
2022-10-29T11:06:02.766Z,28.45
2022-10-29T11:08:40.189Z,28.67
2022-10-29T11:11:15.489Z,28.62
2022-10-29T11:13:49.926Z,28.95
2022-10-29T11:16:33.995Z,32.36
2022-10-29T11:19:15.013Z,32.95
2022-10-29T11:21:49.254Z,32.36
2022-10-29T11:24:24.908Z,35.67
2022-10-29T11:27:01.915Z,35.34
2022-10-29T11:29:48.955Z,35.09
2022-10-29T11:32:25.517Z,34.45
2022-10-29T11:35:04.912Z,33.93
2022-10-29T11:37:44.517Z,39.74
2022-10-29T11:40:16.519Z,44.48
2022-10-29T11:42:44.038Z,45.20
2022-10-29T11:45:16.619Z,46.49
2022-10-29T11:48:21.508Z,46.60
2022-10-29T11:50:59.864Z,47.49
2022-10-29T11:53:51.218Z,48.48
2022-10-29T11:56:33.291Z,48.75
2022-10-29T11:59:11.772Z,47.52
2022-10-29T12:01:57.082Z,47.78
2022-10-29T12:04:32.884Z,48.50
2022-10-29T12:07:22.416Z,48.30
2022-10-29T12:10:32.113Z,50.45
2022-10-29T12:13:14.343Z,50.11
2022-10-29T12:15:52.468Z,50.17
2022-10-29T12:18:32.275Z,50.61
2022-10-29T12:21:13.462Z,50.02
2022-10-29T12:23:56.874Z,48.71
2022-10-29T12:26:37.486Z,49.42
2022-10-29T12:29:14.285Z,49.33
2022-10-29T12:31:53.525Z,48.49
2022-10-29T12:34:30.841Z,48.74
2022-10-29T12:37:10.243Z,49.08
2022-10-29T12:39:48.601Z,49.71
2022-10-29T12:42:25.153Z,50.15
2022-10-29T12:45:07.303Z,50.25
2022-10-29T12:47:47.958Z,49.44
2022-10-29T12:50:38.866Z,50.18
2022-10-29T12:53:27.156Z,49.89
2022-10-29T12:55:58.478Z,50.08
2022-10-29T12:58:50.624Z,47.82
2022-10-29T13:04:33.937Z,48.89
2022-10-29T13:07:05.322Z,49.11
2022-10-29T13:09:34.064Z,48.58
2022-10-29T13:12:05.714Z,48.46
2022-10-29T13:14:40.231Z,48.71
2022-10-29T13:17:28.449Z,48.81
2022-10-29T13:19:59.947Z,48.07
2022-10-29T13:22:52.152Z,48.41
2022-10-29T13:25:46.351Z,48.15
2022-10-29T13:28:51.968Z,47.80
2022-10-29T13:31:49.104Z,47.32
2022-10-29T13:34:54.771Z,47.08
2022-10-29T13:37:52.972Z,47.41
2022-10-29T13:40:55.436Z,46.76
2022-10-29T13:43:24.078Z,46.74
2022-10-29T13:46:09.865Z,46.87
2022-10-29T13:48:38.633Z,46.69
2022-10-29T13:51:13.963Z,46.84
2022-10-29T13:53:51.463Z,48.66
2022-10-29T13:56:28.534Z,49.63
2022-10-29T13:59:02.214Z,49.98
2022-10-29T14:01:33.674Z,50.12
2022-10-29T14:04:06.178Z,50.49
2022-10-29T14:06:39.284Z,50.61
2022-10-29T14:09:21.763Z,51.56
2022-10-29T14:11:59.689Z,51.70
2022-10-29T14:14:37.168Z,51.91
2022-10-29T14:17:14.546Z,52.32
2022-10-29T14:19:46.930Z,51.99
2022-10-29T14:22:32.915Z,52.28
2022-10-29T14:25:01.429Z,51.74
2022-10-29T14:27:29.499Z,52.27
2022-10-29T14:30:13.504Z,52.94
2022-10-29T14:32:41.829Z,53.70
2022-10-29T14:35:15.539Z,54.97
2022-10-29T14:38:22.623Z,55.15
2022-10-29T14:40:49.589Z,56.13
2022-10-29T14:43:25.294Z,56.51
2022-10-29T14:46:19.013Z,59.60
2022-10-29T14:49:01.522Z,58.64
2022-10-29T14:51:36.089Z,58.70
2022-10-29T14:54:07.255Z,59.35
2022-10-29T14:56:38.199Z,59.32
2022-10-29T14:59:19.011Z,60.08
2022-10-29T15:01:56.995Z,60.17
2022-10-29T15:04:31.810Z,60.31
2022-10-29T15:07:16.798Z,61.09
2022-10-29T15:09:46.200Z,61.58
2022-10-29T15:12:20.960Z,61.50
2022-10-29T15:14:52.853Z,61.72
2022-10-29T15:17:35.974Z,62.18
2022-10-29T15:20:19.496Z,62.78
2022-10-29T15:22:46.526Z,63.51
2022-10-29T15:25:24.055Z,63.75
2022-10-29T15:27:52.528Z,64.05
2022-10-29T15:30:22.473Z,64.39
2022-10-29T15:32:49.599Z,64.40
2022-10-29T15:35:21.635Z,64.72
2022-10-29T15:37:48.514Z,65.16
2022-10-29T15:40:17.447Z,65.52
2022-10-29T15:42:44.606Z,65.87
2022-10-29T15:45:27.070Z,66.46
2022-10-29T15:48:18.312Z,67.00
2022-10-29T15:50:46.654Z,66.97
2022-10-29T15:53:16.614Z,67.29
2022-10-29T15:55:44.336Z,67.22
2022-10-29T15:58:14.624Z,67.56
2022-10-29T16:00:42.128Z,67.47
2022-10-29T16:03:15.153Z,67.87
2022-10-29T16:05:44.589Z,68.03
2022-10-29T16:08:25.302Z,68.22
2022-10-29T16:10:53.388Z,68.40
2022-10-29T16:13:23.041Z,68.60
2022-10-29T16:15:50.055Z,69.21
2022-10-29T16:18:16.947Z,69.21
2022-10-29T16:20:44.045Z,70.40
2022-10-29T16:23:12.080Z,71.73
2022-10-29T16:25:41.313Z,72.90
2022-10-29T16:28:09.237Z,73.36
2022-10-29T16:33:11.123Z,73.47
2022-10-29T16:35:37.943Z,73.66
2022-10-29T16:38:04.963Z,73.62
2022-10-29T16:40:31.808Z,74.46
2022-10-29T16:43:00.538Z,75.11
2022-10-29T16:45:29.725Z,75.56
2022-10-29T16:47:57.954Z,75.92
2022-10-29T16:50:27.622Z,75.84
2022-10-29T16:52:58.038Z,75.89
2022-10-29T16:55:25.567Z,76.22
2022-10-29T16:57:52.414Z,76.93
2022-10-29T17:00:21.316Z,76.98
2022-10-29T17:02:48.061Z,77.09
2022-10-29T17:05:15.800Z,77.93
2022-10-29T17:07:42.679Z,77.31
2022-10-29T17:10:10.221Z,77.01
2022-10-29T17:12:37.080Z,76.67
2022-10-29T17:15:04.781Z,76.75
2022-10-29T17:17:33.101Z,76.54
2022-10-29T17:20:00.015Z,76.60
2022-10-29T17:22:26.794Z,76.83
2022-10-29T17:24:53.678Z,76.87
2022-10-29T17:27:20.443Z,76.75
2022-10-29T17:29:47.192Z,77.27
2022-10-29T17:32:14.728Z,77.57
2022-10-29T17:34:42.847Z,77.79
2022-10-29T17:37:09.877Z,77.96
2022-10-29T17:39:36.834Z,78.38
2022-10-29T17:42:04.510Z,78.50
2022-10-29T17:44:31.376Z,79.19
2022-10-29T17:46:58.411Z,79.17
2022-10-29T17:49:25.643Z,80.05
2022-10-29T17:51:53.894Z,80.32
2022-10-29T17:54:20.928Z,81.24
2022-10-29T17:56:48.223Z,82.00
2022-10-29T17:59:15.124Z,82.26
2022-10-29T18:01:44.589Z,81.79
2022-10-29T18:04:11.533Z,81.38
2022-10-29T18:06:38.633Z,80.64
2022-10-29T18:09:06.854Z,81.02
2022-10-29T18:11:33.983Z,80.74
2022-10-29T18:14:00.825Z,80.12
2022-10-29T18:16:30.094Z,80.32
2022-10-29T18:19:02.853Z,79.84
2022-10-29T18:21:31.467Z,79.64
2022-10-29T18:23:58.353Z,79.86
2022-10-29T18:26:29.428Z,79.68
2022-10-29T18:28:58.903Z,79.75
2022-10-29T18:31:28.872Z,79.82
2022-10-29T18:33:57.506Z,80.03
2022-10-29T18:36:24.754Z,79.86
2022-10-29T18:38:53.919Z,80.11
2022-10-29T18:41:24.924Z,80.47
2022-10-29T18:43:55.111Z,80.53
2022-10-29T18:46:22.181Z,80.70
2022-10-29T18:48:50.098Z,80.78
2022-10-29T18:51:20.854Z,80.53
2022-10-29T18:53:58.204Z,80.33
2022-10-29T18:56:29.916Z,80.44
2022-10-29T18:59:14.357Z,80.60
2022-10-29T19:01:41.351Z,80.64
2022-10-29T19:04:14.677Z,80.85
2022-10-29T19:06:44.116Z,81.00
2022-10-29T19:09:16.702Z,81.06
2022-10-29T19:11:43.949Z,81.62
2022-10-29T19:14:14.109Z,82.27
2022-10-29T19:16:41.427Z,83.29
2022-10-29T19:19:18.527Z,83.40
2022-10-29T19:21:54.542Z,83.34
2022-10-29T19:24:21.880Z,83.33
2022-10-29T19:26:49.460Z,83.13
2022-10-29T19:29:20.179Z,83.82
2022-10-29T19:31:47.530Z,84.03
2022-10-29T19:34:14.478Z,84.51
2022-10-29T19:40:48.081Z,83.95
2022-10-29T19:43:16.458Z,83.96
2022-10-29T19:46:25.276Z,83.99
2022-10-29T19:49:33.887Z,83.73
2022-10-29T19:52:01.246Z,83.31
2022-10-29T19:54:28.040Z,83.10
2022-10-29T19:56:54.856Z,83.11
2022-10-29T20:00:16.779Z,83.16
2022-10-29T20:02:52.097Z,83.59
2022-10-29T20:05:21.723Z,84.15
2022-10-29T20:07:48.808Z,84.30
2022-10-29T20:10:16.577Z,84.27
2022-10-29T20:12:44.172Z,83.98
2022-10-29T20:15:11.886Z,83.60
2022-10-29T20:17:39.168Z,83.29
2022-10-29T20:20:11.593Z,83.62
2022-10-29T20:22:42.833Z,84.19
2022-10-29T20:25:43.890Z,84.33
2022-10-29T20:28:17.968Z,83.74
2022-10-29T20:30:44.906Z,83.67
2022-10-29T20:33:11.684Z,83.27
2022-10-29T20:35:39.994Z,83.75
2022-10-29T20:38:06.983Z,83.74
2022-10-29T20:40:34.650Z,83.95
2022-10-29T20:43:01.507Z,84.40
2022-10-29T20:45:28.608Z,84.16
2022-10-29T20:47:55.857Z,83.77
2022-10-29T20:50:23.170Z,84.19
2022-10-29T20:52:51.423Z,84.60
2022-10-29T20:55:18.370Z,84.56
2022-10-29T20:57:45.175Z,84.90
2022-10-29T21:00:13.643Z,84.71
2022-10-29T21:02:40.526Z,84.63
2022-10-29T21:05:08.621Z,84.70
2022-10-29T21:07:35.590Z,84.57
2022-10-29T21:10:04.633Z,84.39
2022-10-29T21:12:31.465Z,83.93
2022-10-29T21:14:58.278Z,84.07
2022-10-29T21:17:25.127Z,83.49
2022-10-29T21:19:51.888Z,83.45
2022-10-29T21:22:18.605Z,83.11
2022-10-29T21:24:45.892Z,82.81
2022-10-29T21:27:14.037Z,81.81
2022-10-29T21:29:41.150Z,81.56
2022-10-29T21:32:11.395Z,81.36
2022-10-29T21:34:45.037Z,81.39
2022-10-29T21:37:11.868Z,81.86
2022-10-29T21:39:38.573Z,82.71
2022-10-29T21:42:05.648Z,83.41
2022-10-29T21:44:33.804Z,84.00
2022-10-29T21:47:00.545Z,84.32
2022-10-29T21:49:27.263Z,84.54
2022-10-29T21:51:54.036Z,84.66
2022-10-29T21:54:23.007Z,84.41
2022-10-29T21:56:52.500Z,84.27
2022-10-29T21:59:19.271Z,84.31
2022-10-29T22:01:47.401Z,83.95
2022-10-29T22:04:14.183Z,83.67
2022-10-29T22:06:40.919Z,83.93
2022-10-29T22:09:08.238Z,83.27
2022-10-29T22:11:34.971Z,83.39
2022-10-29T22:14:02.189Z,83.59
2022-10-29T22:16:28.971Z,82.84
2022-10-29T22:18:57.255Z,82.56
2022-10-29T22:21:26.365Z,82.55
2022-10-29T22:24:17.129Z,82.31
2022-10-29T22:27:51.181Z,82.36
2022-10-29T22:30:28.681Z,82.05
2022-10-29T22:34:14.572Z,81.91
2022-10-29T22:36:41.647Z,82.75
2022-10-29T22:39:08.685Z,83.16
2022-10-29T22:41:35.703Z,83.27
2022-10-29T22:44:03.948Z,84.06
2022-10-29T22:46:39.233Z,84.09
2022-10-29T22:53:11.529Z,86.22
2022-10-29T22:55:38.522Z,86.95
2022-10-29T22:58:05.240Z,86.62
2022-10-29T23:00:31.984Z,86.15
2022-10-29T23:02:59.079Z,85.67
2022-10-29T23:05:27.339Z,85.43
2022-10-29T23:07:54.148Z,85.43
2022-10-29T23:10:21.409Z,85.06
2022-10-29T23:12:48.092Z,85.29
2022-10-29T23:15:15.489Z,84.58
2022-10-29T23:17:42.234Z,84.47
2022-10-29T23:20:09.431Z,83.73
2022-10-29T23:22:37.556Z,83.85
2022-10-29T23:25:05.870Z,83.86
2022-10-29T23:27:32.577Z,83.81
2022-10-29T23:29:59.518Z,83.57
2022-10-29T23:32:26.740Z,82.67
2022-10-29T23:34:53.545Z,82.81
2022-10-29T23:37:20.279Z,82.90
2022-10-29T23:39:48.566Z,83.87
2022-10-29T23:42:15.304Z,85.29
2022-10-29T23:44:42.258Z,85.20
2022-10-29T23:47:09.066Z,85.74
2022-10-29T23:49:35.805Z,86.16
2022-10-29T23:52:02.757Z,86.83
2022-10-29T23:54:29.513Z,86.00
2022-10-29T23:56:57.594Z,84.98
2022-10-29T23:59:24.342Z,84.44
